Map

Track Data

SID SEASON NUMBER BASIN SUBBASIN NAME ISO_TIME NATURE LAT LON WMO_WIND WMO_PRES WMO_AGENCY TRACK_TYPE DIST2LAND LANDFALL IFLAG USA_AGENCY USA_ATCF_ID USA_LAT USA_LON USA_RECORD USA_STATUS USA_WIND USA_PRES USA_SSHS USA_R34_NE USA_R34_SE USA_R34_SW USA_R34_NW USA_R50_NE USA_R50_SE USA_R50_SW USA_R50_NW USA_R64_NE USA_R64_SE USA_R64_SW USA_R64_NW USA_POCI USA_ROCI USA_RMW USA_EYE TOKYO_LAT TOKYO_LON TOKYO_GRADE TOKYO_WIND TOKYO_PRES TOKYO_R50_DIR TOKYO_R50_LONG TOKYO_R50_SHORT TOKYO_R30_DIR TOKYO_R30_LONG TOKYO_R30_SHORT TOKYO_LAND CMA_LAT CMA_LON CMA_CAT CMA_WIND CMA_PRES HKO_LAT HKO_LON HKO_CAT HKO_WIND HKO_PRES NEWDELHI_LAT NEWDELHI_LON NEWDELHI_GRADE NEWDELHI_WIND NEWDELHI_PRES NEWDELHI_CI NEWDELHI_DP NEWDELHI_POCI REUNION_LAT REUNION_LON REUNION_TYPE REUNION_WIND REUNION_PRES REUNION_TNUM REUNION_CI REUNION_RMW REUNION_R34_NE REUNION_R34_SE REUNION_R34_SW REUNION_R34_NW REUNION_R50_NE REUNION_R50_SE REUNION_R50_SW REUNION_R50_NW REUNION_R64_NE REUNION_R64_SE REUNION_R64_SW REUNION_R64_NW BOM_LAT BOM_LON BOM_TYPE BOM_WIND BOM_PRES BOM_TNUM BOM_CI BOM_RMW BOM_R34_NE BOM_R34_SE BOM_R34_SW BOM_R34_NW BOM_R50_NE BOM_R50_SE BOM_R50_SW BOM_R50_NW BOM_R64_NE BOM_R64_SE BOM_R64_SW BOM_R64_NW BOM_ROCI BOM_POCI BOM_EYE BOM_POS_METHOD BOM_PRES_METHOD NADI_LAT NADI_LON NADI_CAT NADI_WIND NADI_PRES WELLINGTON_LAT WELLINGTON_LON WELLINGTON_WIND WELLINGTON_PRES DS824_LAT DS824_LON DS824_STAGE DS824_WIND DS824_PRES TD9636_LAT TD9636_LON TD9636_STAGE TD9636_WIND TD9636_PRES TD9635_LAT TD9635_LON TD9635_WIND TD9635_PRES TD9635_ROCI NEUMANN_LAT NEUMANN_LON NEUMANN_CLASS NEUMANN_WIND NEUMANN_PRES MLC_LAT MLC_LON MLC_CLASS MLC_WIND MLC_PRES USA_GUST BOM_GUST BOM_GUST_PER REUNION_GUST REUNION_GUST_PER USA_SEAHGT USA_SEARAD_NE USA_SEARAD_SE USA_SEARAD_SW USA_SEARAD_NW STORM_SPEED STORM_DIR
1905113N09150 1905 18 WP MM NOT_NAMED 1905-04-22 16:00:00 NR 8.90000 150.000 main 1265 1254 __________O___ -1 8.90000 150.000 4 21 276
1905113N09150 1905 18 WP MM NOT_NAMED 1905-04-22 18:00:00 NR 8.97229 149.283 main 1261 1249 __________P___ -1 8.97229 149.283 4 21 276
1905113N09150 1905 18 WP MM NOT_NAMED 1905-04-22 21:00:00 NR 9.07719 148.231 main 1258 1255 __________P___ -1 9.07719 148.231 4 20 276
1905113N09150 1905 18 WP MM NOT_NAMED 1905-04-23 00:00:00 NR 9.17679 147.245 main 1266 1266 __________P___ -1 9.17679 147.245 4 19 276
1905113N09150 1905 18 WP MM NOT_NAMED 1905-04-23 03:00:00 NR 9.27028 146.364 main 1277 1277 __________P___ -1 9.27028 146.364 4 17 276
1905113N09150 1905 18 WP MM NOT_NAMED 1905-04-23 04:00:00 NR 9.30000 146.100 main 1278 1278 __________O___ -1 9.30000 146.100 4 15 277
1905113N09150 1905 18 WP MM NOT_NAMED 1905-04-23 06:00:00 NR 9.35725 145.623 main 1293 1293 __________P___ -1 9.35725 145.623 4 13 277
1905113N09150 1905 18 WP MM NOT_NAMED 1905-04-23 09:00:00 NR 9.43780 145.008 main 1300 1300 __________P___ -1 9.43780 145.008 4 11 278
1905113N09150 1905 18 WP MM NOT_NAMED 1905-04-23 12:00:00 NR 9.51191 144.472 main 1320 1322 __________P___ -1 9.51191 144.472 4 10 278
1905113N09150 1905 18 WP MM NOT_NAMED 1905-04-23 15:00:00 NR 9.57920 143.969 main 1342 1344 __________P___ -1 9.57920 143.969 4 10 278
1905113N09150 1905 18 WP MM NOT_NAMED 1905-04-23 16:00:00 NR 9.60000 143.800 main 1347 1347 __________O___ -1 9.60000 143.800 4 11 276
1905113N09150 1905 18 WP MM NOT_NAMED 1905-04-23 18:00:00 NR 9.63633 143.414 main 1358 1358 __________P___ -1 9.63633 143.414 4 11 275
1905113N09150 1905 18 WP MM NOT_NAMED 1905-04-23 21:00:00 NR 9.68458 142.842 main 1364 1345 __________P___ -1 9.68458 142.842 4 11 275
1905113N09150 1905 18 WP MM NOT_NAMED 1905-04-24 00:00:00 NR 9.73080 142.288 main 1345 1337 __________P___ -1 9.73080 142.288 4 11 275
1905113N09150 1905 18 WP MM NOT_NAMED 1905-04-24 03:00:00 NR 9.78119 141.765 main 1338 1331 __________P___ -1 9.78119 141.765 4 10 276
1905113N09150 1905 18 WP MM NOT_NAMED 1905-04-24 04:00:00 NR 9.80000 141.600 main 1331 1322 __________O___ -1 9.80000 141.600 4 9 278
1905113N09150 1905 18 WP MM NOT_NAMED 1905-04-24 06:00:00 NR 9.84394 141.293 main 1322 1320 __________P___ -1 9.84394 141.293 4 9 279
1905113N09150 1905 18 WP MM NOT_NAMED 1905-04-24 09:00:00 NR 9.91640 140.865 main 1320 1311 __________P___ -1 9.91640 140.865 4 8 280
1905113N09150 1905 18 WP MM NOT_NAMED 1905-04-24 12:00:00 NR 9.99402 140.455 main 1313 1300 __________P___ -1 9.99402 140.455 4 8 281
1905113N09150 1905 18 WP MM NOT_NAMED 1905-04-24 15:00:00 NR 10.0736 140.042 main 1303 1299 __________P___ -1 10.0736 140.042 4 8 281
1905113N09150 1905 18 WP MM NOT_NAMED 1905-04-24 16:00:00 NR 10.1000 139.900 main 1299 1288 __________O___ -1 10.1000 139.900 4 9 280
1905113N09150 1905 18 WP MM NOT_NAMED 1905-04-24 18:00:00 NR 10.1473 139.597 main 1288 1281 __________P___ -1 10.1473 139.597 4 9 279
1905113N09150 1905 18 WP MM NOT_NAMED 1905-04-24 21:00:00 NR 10.2182 139.131 main 1281 1274 __________P___ -1 10.2182 139.131 4 9 279
1905113N09150 1905 18 WP MM NOT_NAMED 1905-04-25 00:00:00 NR 10.2919 138.652 main 1279 1268 __________P___ -1 10.2919 138.652 4 10 279
1905113N09150 1905 18 WP MM NOT_NAMED 1905-04-25 03:00:00 NR 10.3716 138.164 main 1276 1271 __________P___ -1 10.3716 138.164 4 10 280
1905113N09150 1905 18 WP MM NOT_NAMED 1905-04-25 04:00:00 NR 10.4000 138.000 main 1271 1256 __________O___ -1 10.4000 138.000 4 10 280
1905113N09150 1905 18 WP MM NOT_NAMED 1905-04-25 06:00:00 NR 10.4582 137.672 main 1259 1206 __________P___ -1 10.4582 137.672 4 10 281
1905113N09150 1905 18 WP MM NOT_NAMED 1905-04-25 09:00:00 NR 10.5518 137.175 main 1208 1156 __________P___ -1 10.5518 137.175 4 10 281
1905113N09150 1905 18 WP MM NOT_NAMED 1905-04-25 12:00:00 NR 10.6531 136.672 main 1159 1106 __________P___ -1 10.6531 136.672 4 10 282
1905113N09150 1905 18 WP MM NOT_NAMED 1905-04-25 15:00:00 NR 10.7620 136.168 main 1108 1086 __________P___ -1 10.7620 136.168 4 10 283
1905113N09150 1905 18 WP MM NOT_NAMED 1905-04-25 16:00:00 NR 10.8000 136.000 main 1086 1057 __________O___ -1 10.8000 136.000 4 10 283
1905113N09150 1905 18 WP MM NOT_NAMED 1905-04-25 18:00:00 NR 10.8773 135.677 main 1057 1006 __________P___ -1 10.8773 135.677 4 10 284
1905113N09150 1905 18 WP MM NOT_NAMED 1905-04-25 21:00:00 NR 10.9998 135.193 main 1006 955 __________P___ -1 10.9998 135.193 4 10 285
1905113N09150 1905 18 WP MM NOT_NAMED 1905-04-26 00:00:00 NR 11.1273 134.698 main 955 904 __________P___ -1 11.1273 134.698 4 10 285
1905113N09150 1905 18 WP MM NOT_NAMED 1905-04-26 03:00:00 NR 11.2569 134.180 main 907 885 __________P___ -1 11.2569 134.180 4 11 284
1905113N09150 1905 18 WP MM NOT_NAMED 1905-04-26 04:00:00 NR 11.3000 134.000 main 885 846 __________O___ -1 11.3000 134.000 4 11 283
1905113N09150 1905 18 WP MM NOT_NAMED 1905-04-26 06:00:00 NR 11.3780 133.625 main 846 787 __________P___ -1 11.3780 133.625 4 12 282
1905113N09150 1905 18 WP MM NOT_NAMED 1905-04-26 09:00:00 NR 11.4949 133.038 main 787 723 __________P___ -1 11.4949 133.038 4 12 282
1905113N09150 1905 18 WP MM NOT_NAMED 1905-04-26 12:00:00 NR 11.6173 132.429 main 723 659 __________P___ -1 11.6173 132.429 4 12 282
1905113N09150 1905 18 WP MM NOT_NAMED 1905-04-26 15:00:00 NR 11.7515 131.808 main 660 638 __________P___ -1 11.7515 131.808 4 13 283
1905113N09150 1905 18 WP MM NOT_NAMED 1905-04-26 16:00:00 NR 11.8000 131.600 main 638 597 __________O___ -1 11.8000 131.600 4 13 285
1905113N09150 1905 18 WP MM NOT_NAMED 1905-04-26 18:00:00 NR 11.9185 131.166 main 597 526 __________P___ -1 11.9185 131.166 4 13 286
1905113N09150 1905 18 WP MM NOT_NAMED 1905-04-26 21:00:00 NR 12.1091 130.507 main 526 469 __________P___ -1 12.1091 130.507 4 13 287
1905113N09150 1905 18 WP MM NOT_NAMED 1905-04-27 00:00:00 NR 12.2956 129.868 main 469 412 __________P___ -1 12.2956 129.868 4 13 286
1905113N09150 1905 18 WP MM NOT_NAMED 1905-04-27 03:00:00 NR 12.4561 129.280 main 414 392 __________P___ -1 12.4561 129.280 4 12 285
1905113N09150 1905 18 WP MM NOT_NAMED 1905-04-27 04:00:00 NR 12.5000 129.100 main 392 360 __________O___ -1 12.5000 129.100 4 10 281
1905113N09150 1905 18 WP MM NOT_NAMED 1905-04-27 06:00:00 NR 12.5534 128.784 main 361 318 __________P___ -1 12.5534 128.784 4 9 278
1905113N09150 1905 18 WP MM NOT_NAMED 1905-04-27 09:00:00 NR 12.6023 128.368 main 318 275 __________P___ -1 12.6023 128.368 4 8 276
1905113N09150 1905 18 WP MM NOT_NAMED 1905-04-27 12:00:00 NR 12.6359 127.992 main 275 234 __________P___ -1 12.6359 127.992 4 7 276
1905113N09150 1905 18 WP MM NOT_NAMED 1905-04-27 15:00:00 NR 12.6792 127.625 main 234 224 __________P___ -1 12.6792 127.625 4 7 278
1905113N09150 1905 18 WP MM NOT_NAMED 1905-04-27 16:00:00 NR 12.7000 127.500 main 224 196 __________O___ -1 12.7000 127.500 4 8 282
1905113N09150 1905 18 WP MM NOT_NAMED 1905-04-27 18:00:00 NR 12.7608 127.228 main 196 161 __________P___ -1 12.7608 127.228 4 8 284
1905113N09150 1905 18 WP MM NOT_NAMED 1905-04-27 21:00:00 NR 12.8709 126.813 main 161 132 __________P___ -1 12.8709 126.813 4 9 286
1905113N09150 1905 18 WP MM NOT_NAMED 1905-04-28 00:00:00 NR 13.0009 126.388 main 132 101 __________P___ -1 13.0009 126.388 4 9 288
1905113N09150 1905 18 WP MM NOT_NAMED 1905-04-28 03:00:00 NR 13.1478 125.950 main 101 101 __________P___ -1 13.1478 125.950 4 9 289
1905113N09150 1905 18 WP MM NOT_NAMED 1905-04-28 04:00:00 NR 13.2000 125.800 main 101 95 __________O___ -1 13.2000 125.800 4 9 289
1905113N09150 1905 18 WP MM NOT_NAMED 1905-04-28 06:00:00 NR 13.3026 125.492 main 95 68 __________P___ -1 13.3026 125.492 4 10 289
1905113N09150 1905 18 WP MM NOT_NAMED 1905-04-28 09:00:00 NR 13.4690 125.018 main 68 15 __________P___ -1 13.4690 125.018 4 10 290
1905113N09150 1905 18 WP MM NOT_NAMED 1905-04-28 12:00:00 NR 13.6478 124.536 main 15 0 __________P___ -1 13.6478 124.536 4 10 291
1905113N09150 1905 18 WP MM NOT_NAMED 1905-04-28 15:00:00 NR 13.8358 124.057 main 0 10 __________P___ -1 13.8358 124.057 4 10 292
1905113N09150 1905 18 WP MM NOT_NAMED 1905-04-28 16:00:00 NR 13.9000 123.900 main 15 10 __________O___ -1 13.9000 123.900 4 10 293
1905113N09150 1905 18 WP MM NOT_NAMED 1905-04-28 18:00:00 NR 14.0273 123.602 main 11 11 __________P___ -1 14.0273 123.602 4 9 294
1905113N09150 1905 18 WP MM NOT_NAMED 1905-04-28 21:00:00 NR 14.2247 123.161 main 22 11 __________P___ -1 14.2247 123.161 4 9 295
1905113N09150 1905 18 WP MM NOT_NAMED 1905-04-29 00:00:00 NR 14.4273 122.718 main 22 22 __________P___ -1 14.4273 122.718 4 10 295
1905113N09150 1905 18 WP MM NOT_NAMED 1905-04-29 03:00:00 NR 14.6319 122.259 main 46 43 __________P___ -1 14.6319 122.259 4 10 295
1905113N09150 1905 18 WP MM NOT_NAMED 1905-04-29 04:00:00 NR 14.7000 122.100 main 43 15 __________O___ -1 14.7000 122.100 4 10 293
1905113N09150 1905 18 WP MM NOT_NAMED 1905-04-29 06:00:00 NR 14.8306 121.767 main 15 0 __________P___ -1 14.8306 121.767 4 11 292
1905113N09150 1905 18 WP MM NOT_NAMED 1905-04-29 09:00:00 NR 15.0265 121.249 main 0 0 __________P___ -1 15.0265 121.249 4 11 291
1905113N09150 1905 18 WP MM NOT_NAMED 1905-04-29 12:00:00 NR 15.2252 120.716 main 0 0 __________P___ -1 15.2252 120.716 4 11 291
1905113N09150 1905 18 WP MM NOT_NAMED 1905-04-29 15:00:00 NR 15.4299 120.179 main 0 0 __________P___ -1 15.4299 120.179 4 11 292
1905113N09150 1905 18 WP MM NOT_NAMED 1905-04-29 16:00:00 NR 15.5000 120.000 main 0 0 __________O___ -1 15.5000 120.000 4 12 288
1905113N09150 1905 18 WP MM NOT_NAMED 1905-04-29 18:00:00 NR 15.6106 119.603 main 34 34 __________P___ -1 15.6106 119.603 4 12 286
1905113N09150 1905 18 WP MM NOT_NAMED 1905-04-29 21:00:00 NR 15.7819 119.006 main 78 78 __________P___ -1 15.7819 119.006 4 12 289
1905113N09150 1905 18 WP MM NOT_NAMED 1905-04-30 00:00:00 NR 15.9926 118.458 main 128 139 __________P___ -1 15.9926 118.458 4 11 298
1905113N09150 1905 18 WP MM NOT_NAMED 1905-04-30 03:00:00 NR 16.2804 118.015 main 184 184 __________P___ -1 16.2804 118.015 4 10 307
1905113N09150 1905 18 WP MM NOT_NAMED 1905-04-30 04:00:00 NR 16.4000 117.900 main 197 197 __________O___ -1 16.4000 117.900 7 10 325
1905113N09150 1905 18 WP MM NOT_NAMED 1905-04-30 06:00:00 NR 16.7075 117.706 main 227 227 __________P___ -1 16.7075 117.706 7 11 337
1905113N09150 1905 18 WP MM NOT_NAMED 1905-04-30 09:00:00 NR 17.2516 117.526 main 269 269 __________P___ -1 17.2516 117.526 7 12 349
1905113N09150 1905 18 WP MM NOT_NAMED 1905-04-30 12:00:00 NR 17.8424 117.477 main 296 298 __________P___ -1 17.8424 117.477 7 12 1
1905113N09150 1905 18 WP MM NOT_NAMED 1905-04-30 15:00:00 NR 18.4205 117.549 main 309 302 __________P___ -1 18.4205 117.549 7 12 9
1905113N09150 1905 18 WP MM NOT_NAMED 1905-04-30 16:00:00 NR 18.6000 117.600 main 306 305 __________O___ -1 18.6000 117.600 7 10 15
1905113N09150 1905 18 WP MM NOT_NAMED 1905-04-30 18:00:00 NR 18.8951 117.684 main 308 297 __________P___ -1 18.8951 117.684 7 9 23
1905113N09150 1905 18 WP MM NOT_NAMED 1905-04-30 21:00:00 NR 19.2999 117.910 main 301 282 __________P___ -1 19.2999 117.910 7 10 34
1905113N09150 1905 18 WP MM NOT_NAMED 1905-05-01 00:00:00 NR 19.6820 118.255 main 282 268 __________P___ -1 19.6820 118.255 7 11 45
1905113N09150 1905 18 WP MM NOT_NAMED 1905-05-01 03:00:00 NR 20.0668 118.719 main 275 266 __________P___ -1 20.0668 118.719 7 12 49
1905113N09150 1905 18 WP MM NOT_NAMED 1905-05-01 04:00:00 NR 20.2000 118.900 main 266 213 __________O___ -1 20.2000 118.900 7 14 53
1905113N09150 1905 18 WP MM NOT_NAMED 1905-05-01 06:00:00 NR 20.4843 119.300 main 213 133 __________P___ -1 20.4843 119.300 7 15 55
1905113N09150 1905 18 WP MM NOT_NAMED 1905-05-01 09:00:00 NR 20.9226 120.000 main 133 55 __________P___ -1 20.9226 120.000 7 16 57
1905113N09150 1905 18 WP MM NOT_NAMED 1905-05-01 12:00:00 NR 21.3749 120.770 main 55 38 __________P___ -1 21.3749 120.770 7 17 57
1905113N09150 1905 18 WP MM NOT_NAMED 1905-05-01 15:00:00 NR 21.8412 121.549 main 62 72 __________P___ -1 21.8412 121.549 7 17 57
1905113N09150 1905 18 WP MM NOT_NAMED 1905-05-01 16:00:00 NR 22.0000 121.800 main 92 92 __________O___ -1 22.0000 121.800 7 16 53
1905113N09150 1905 18 WP MM NOT_NAMED 1905-05-01 18:00:00 NR 22.3149 122.226 main 121 120 __________P___ -1 22.3149 122.226 7 15 50
1905113N09150 1905 18 WP MM NOT_NAMED 1905-05-01 21:00:00 NR 22.8008 122.845 main 147 155 __________P___ -1 22.8008 122.845 7 15 49
1905113N09150 1905 18 WP MM NOT_NAMED 1905-05-02 00:00:00 NR 23.3033 123.475 main 208 203 __________P___ -1 23.3033 123.475 7 16 50
1905113N09150 1905 18 WP MM NOT_NAMED 1905-05-02 03:00:00 NR 23.8230 124.155 main 245 242 __________P___ -1 23.8230 124.155 7 16 51
1905113N09150 1905 18 WP MM NOT_NAMED 1905-05-02 04:00:00 NR 24.0000 124.400 main 259 259 __________O___ -1 24.0000 124.400 7 18 52
1905113N09150 1905 18 WP MM NOT_NAMED 1905-05-02 06:00:00 NR 24.3757 124.927 main 300 310 __________P___ -1 24.3757 124.927 7 19 53
1905113N09150 1905 18 WP MM NOT_NAMED 1905-05-02 09:00:00 NR 24.9524 125.780 main 382 382 __________P___ -1 24.9524 125.780 7 20 55
1905113N09150 1905 18 WP MM NOT_NAMED 1905-05-02 12:00:00 NR 25.5175 126.698 main 475 485 __________P___ -1 25.5175 126.698 7 20 57
1905113N09150 1905 18 WP MM NOT_NAMED 1905-05-02 15:00:00 NR 26.0403 127.668 main 582 584 __________P___ -1 26.0403 127.668 7 20 60
1905113N09150 1905 18 WP MM NOT_NAMED 1905-05-02 16:00:00 NR 26.2000 128.000 main 596 538 __________O___ -1 26.2000 128.000 7 20 63
1905113N09150 1905 18 WP MM NOT_NAMED 1905-05-02 18:00:00 NR 26.4931 128.676 main 538 467 __________P___ -1 26.4931 128.676 7 20 66
1905113N09150 1905 18 WP MM NOT_NAMED 1905-05-02 21:00:00 NR 26.8760 129.712 main 467 424 __________P___ -1 26.8760 129.712 7 20 69
1905113N09150 1905 18 WP MM NOT_NAMED 1905-05-03 00:00:00 NR 27.2071 130.769 main 424 402 __________P___ -1 27.2071 130.769 7 20 72
1905113N09150 1905 18 WP MM NOT_NAMED 1905-05-03 03:00:00 NR 27.5049 131.841 main 404 399 __________P___ -1 27.5049 131.841 7 20 73
1905113N09150 1905 18 WP MM NOT_NAMED 1905-05-03 04:00:00 NR 27.6000 132.200 main 406 __________O___ -1 27.6000 132.200 7 20 73

Digital Typhoon Data and Search

About IBTrACS Database

This database is a web-friendly format of International Best Track Archive for Climate Stewardship (IBTrACS), a global best track data archive curated by NOAA dating back to 1842.

Updated: 2021-10-08